createdAt,value
2023-02-02T00:01:25.368Z,101001.06
2023-02-02T00:03:53.576Z,100994.22
2023-02-02T00:06:25.439Z,101006.94
2023-02-02T00:08:53.695Z,100996.81
2023-02-02T00:11:21.491Z,100998.53
2023-02-02T00:13:49.199Z,101004.50
2023-02-02T00:16:36.527Z,101013.94
2023-02-02T00:19:06.646Z,101019.94
2023-02-02T00:21:35.811Z,101011.38
2023-02-02T00:24:03.602Z,101015.66
2023-02-02T00:26:31.326Z,101026.81
2023-02-02T00:28:59.181Z,101028.53
2023-02-02T00:31:27.020Z,101028.56
2023-02-02T00:33:54.752Z,101022.50
2023-02-02T00:36:22.529Z,101034.53
2023-02-02T00:38:52.946Z,101024.22
2023-02-02T00:41:20.980Z,101039.66
2023-02-02T00:44:09.214Z,101031.88
2023-02-02T00:46:39.408Z,101023.38
2023-02-02T00:49:07.121Z,101054.28
2023-02-02T00:51:34.942Z,101061.13
2023-02-02T00:54:04.464Z,101067.16
2023-02-02T00:56:32.310Z,101067.13
2023-02-02T00:59:00.179Z,101068.00
2023-02-02T01:01:28.646Z,101073.16
2023-02-02T01:03:56.351Z,101080.00
2023-02-02T01:06:24.129Z,101086.00
2023-02-02T01:08:51.868Z,101085.16
2023-02-02T01:11:20.984Z,101078.28
2023-02-02T01:13:48.741Z,101097.16
2023-02-02T01:16:16.502Z,101088.56
2023-02-02T01:18:44.595Z,101101.47
2023-02-02T01:21:13.388Z,101102.31
2023-02-02T01:23:41.582Z,101102.31
2023-02-02T01:26:11.257Z,101093.72
2023-02-02T01:28:41.157Z,101102.28
2023-02-02T01:31:11.832Z,101092.00
2023-02-02T01:33:40.093Z,101024.25
2023-02-02T01:36:11.538Z,101122.91
2023-02-02T01:38:39.245Z,101110.03
2023-02-02T01:41:08.048Z,101123.72
2023-02-02T01:43:55.129Z,101111.72
2023-02-02T01:46:25.061Z,101128.00
2023-02-02T01:48:58.017Z,101134.03
2023-02-02T01:51:32.192Z,101131.50
2023-02-02T01:54:01.082Z,101135.78
2023-02-02T01:56:35.240Z,101141.78
2023-02-02T01:59:05.725Z,101150.34
2023-02-02T02:01:33.444Z,101147.78
2023-02-02T02:04:01.236Z,101154.66
2023-02-02T02:06:29.935Z,101154.59
2023-02-02T02:09:00.229Z,101164.97
2023-02-02T02:11:28.257Z,101152.09
2023-02-02T02:14:15.910Z,101156.31
2023-02-02T02:16:55.702Z,101164.94
2023-02-02T02:20:15.798Z,101171.81
2023-02-02T02:23:17.802Z,101183.81
2023-02-02T02:26:38.920Z,101184.69
2023-02-02T02:29:54.793Z,101185.53
2023-02-02T02:32:33.776Z,101186.38
2023-02-02T02:35:10.710Z,101203.56
2023-02-02T02:37:47.079Z,101204.41
2023-02-02T02:40:23.127Z,101206.13
2023-02-02T02:42:55.732Z,101211.31
2023-02-02T02:45:26.256Z,101199.28
2023-02-02T02:47:56.239Z,101204.44
2023-02-02T02:50:24.053Z,101214.75
2023-02-02T02:53:05.580Z,101195.00
2023-02-02T02:55:47.188Z,101205.28
2023-02-02T02:58:19.530Z,101224.19
2023-02-02T03:01:06.884Z,101204.31
2023-02-02T03:03:51.860Z,101229.13
2023-02-02T03:06:29.192Z,101234.44
2023-02-02T03:09:01.918Z,101219.78
2023-02-02T03:11:29.913Z,101237.84
2023-02-02T03:13:58.074Z,101208.72
2023-02-02T03:16:25.794Z,101247.31
2023-02-02T03:18:56.070Z,101242.97
2023-02-02T03:21:23.735Z,101242.06
2023-02-02T03:23:51.438Z,101255.91
2023-02-02T03:26:19.229Z,101266.22
2023-02-02T03:28:47.107Z,101259.31
2023-02-02T03:31:15.061Z,101253.22
2023-02-02T03:33:43.078Z,101255.69
2023-02-02T03:36:12.370Z,101259.22
2023-02-02T03:38:40.110Z,101269.56
2023-02-02T03:41:07.851Z,101275.63
2023-02-02T03:43:35.524Z,101271.34
2023-02-02T03:46:05.265Z,101273.84
2023-02-02T03:48:35.862Z,101280.75
2023-02-02T03:51:07.088Z,101284.19
2023-02-02T03:53:36.145Z,101283.19
2023-02-02T03:56:04.501Z,101310.78
2023-02-02T03:58:32.169Z,101291.72
2023-02-02T04:01:04.515Z,101306.31
2023-02-02T04:03:32.244Z,101302.97
2023-02-02T04:05:59.933Z,101310.72
2023-02-02T04:08:28.443Z,101304.66
2023-02-02T04:10:57.543Z,101321.13
2023-02-02T04:13:25.292Z,101319.41
2023-02-02T04:15:58.321Z,101321.94
2023-02-02T04:18:26.113Z,101322.81
2023-02-02T04:20:58.322Z,101321.13
2023-02-02T04:23:26.358Z,101303.88
2023-02-02T04:25:54.234Z,101328.78
2023-02-02T04:28:23.854Z,101330.44
2023-02-02T04:30:51.847Z,101341.53
2023-02-02T04:33:19.550Z,101336.50
2023-02-02T04:35:47.431Z,101341.59
2023-02-02T04:38:15.823Z,101335.59
2023-02-02T04:40:45.748Z,101351.06
2023-02-02T04:43:13.869Z,101352.84
2023-02-02T04:45:43.331Z,101350.28
2023-02-02T04:48:11.145Z,101353.72
2023-02-02T04:50:38.935Z,101350.25
2023-02-02T04:53:06.778Z,101346.88
2023-02-02T04:55:37.919Z,101348.56
2023-02-02T04:58:06.099Z,101344.31
2023-02-02T05:00:34.014Z,101351.25
2023-02-02T05:03:03.046Z,101356.38
2023-02-02T05:05:30.786Z,101361.31
2023-02-02T05:07:59.876Z,101358.53
2023-02-02T05:10:27.660Z,101352.00
2023-02-02T05:12:55.690Z,101360.50
2023-02-02T05:15:23.977Z,101362.25
2023-02-02T05:17:52.097Z,101366.50
2023-02-02T05:20:21.276Z,101357.03
2023-02-02T05:22:50.658Z,101375.09
2023-02-02T05:25:19.127Z,101369.19
2023-02-02T05:27:47.309Z,101371.00
2023-02-02T05:30:15.925Z,101351.06
2023-02-02T05:32:43.647Z,101378.72
2023-02-02T05:35:11.976Z,101370.91
2023-02-02T05:37:43.144Z,101386.50
2023-02-02T05:40:12.150Z,101385.72
2023-02-02T05:42:40.015Z,101387.28
2023-02-02T05:45:08.473Z,101391.59
2023-02-02T05:47:36.658Z,101386.44
2023-02-02T05:50:04.543Z,101390.75
2023-02-02T05:52:35.931Z,101405.25
2023-02-02T05:55:05.571Z,101408.72
2023-02-02T05:57:34.238Z,101405.13
2023-02-02T06:00:01.941Z,101413.78
2023-02-02T06:02:29.691Z,101413.03
2023-02-02T06:04:57.411Z,101412.13
2023-02-02T06:07:25.431Z,101412.91
2023-02-02T06:09:53.126Z,101419.91
2023-02-02T06:12:22.249Z,101420.72
2023-02-02T06:14:49.970Z,101420.84
2023-02-02T06:17:17.742Z,101428.56
2023-02-02T06:19:45.471Z,101430.34
2023-02-02T06:22:13.257Z,101429.38
2023-02-02T06:24:41.120Z,101434.56
2023-02-02T06:27:08.816Z,101431.97
2023-02-02T06:29:54.826Z,101433.34
2023-02-02T06:32:22.523Z,101439.56
2023-02-02T06:34:50.213Z,101447.31
2023-02-02T06:37:17.931Z,101449.97
2023-02-02T06:39:45.984Z,101457.72
2023-02-02T06:42:21.105Z,101461.16
2023-02-02T06:44:51.078Z,101460.22
2023-02-02T06:47:18.849Z,101466.31
2023-02-02T06:49:46.507Z,101470.75
2023-02-02T06:52:14.166Z,101469.69
2023-02-02T06:54:41.887Z,101476.75
2023-02-02T06:57:10.397Z,101483.63
2023-02-02T06:59:38.283Z,101489.56
2023-02-02T07:02:10.177Z,101478.28
2023-02-02T07:04:37.935Z,101486.69
2023-02-02T07:07:05.707Z,101491.97
2023-02-02T07:09:33.796Z,101498.84
2023-02-02T07:12:01.524Z,101497.91
2023-02-02T07:14:29.254Z,101405.66
2023-02-02T07:16:56.933Z,101513.28
2023-02-02T07:19:26.056Z,101516.06
2023-02-02T07:21:53.740Z,101520.31
2023-02-02T07:24:21.427Z,101525.38
2023-02-02T07:26:49.145Z,101526.19
2023-02-02T07:29:16.821Z,101527.25
2023-02-02T07:31:44.576Z,101530.69
2023-02-02T07:34:12.375Z,101530.69
2023-02-02T07:36:41.469Z,101539.44
2023-02-02T07:39:09.570Z,101544.59
2023-02-02T07:41:37.766Z,101536.75
2023-02-02T07:44:07.282Z,101545.41
2023-02-02T07:46:35.138Z,101543.78
2023-02-02T07:49:03.827Z,101554.09
2023-02-02T07:51:31.535Z,101549.00
2023-02-02T07:54:00.632Z,101561.03
2023-02-02T07:56:28.929Z,101547.31
2023-02-02T07:58:57.713Z,101561.03
2023-02-02T08:01:26.602Z,101547.34
2023-02-02T08:03:55.714Z,101537.06
2023-02-02T08:06:26.183Z,101570.63
2023-02-02T08:08:53.913Z,101545.69
2023-02-02T08:11:24.184Z,101578.19
2023-02-02T08:13:53.436Z,101576.34
2023-02-02T08:16:22.105Z,101581.47
2023-02-02T08:18:50.213Z,101571.59
2023-02-02T08:21:18.973Z,101574.69
2023-02-02T08:23:46.999Z,101555.13
2023-02-02T08:26:17.143Z,101574.06
2023-02-02T08:28:48.021Z,101582.13
2023-02-02T08:31:19.100Z,101578.06
2023-02-02T08:33:47.242Z,101552.59
2023-02-02T08:36:16.249Z,101576.47
2023-02-02T08:38:44.050Z,101586.53
2023-02-02T08:41:14.037Z,101578.78
2023-02-02T08:43:42.569Z,101581.16
2023-02-02T08:46:14.934Z,101561.84
2023-02-02T08:48:43.275Z,101573.22
2023-02-02T08:51:12.986Z,101575.84
2023-02-02T08:53:40.740Z,101536.66
2023-02-02T08:56:11.881Z,101568.91
2023-02-02T08:58:40.234Z,101572.94
2023-02-02T09:01:09.690Z,101580.84
2023-02-02T09:03:40.240Z,101580.34
2023-02-02T09:06:09.283Z,101590.47
2023-02-02T09:08:37.438Z,101600.44
2023-02-02T09:11:07.537Z,101605.78
2023-02-02T09:13:35.383Z,101622.84
2023-02-02T09:16:04.635Z,101624.56
2023-02-02T09:18:32.587Z,101628.81
2023-02-02T09:21:03.128Z,101645.34
2023-02-02T09:23:31.612Z,101642.94
2023-02-02T09:26:09.361Z,101648.13
2023-02-02T09:28:39.141Z,101653.25
2023-02-02T09:31:07.966Z,101678.22
2023-02-02T09:33:36.299Z,101673.06
2023-02-02T09:36:10.975Z,101683.38
2023-02-02T09:38:39.345Z,101686.84
2023-02-02T09:41:44.542Z,101686.88
2023-02-02T09:44:22.491Z,101679.13
2023-02-02T09:47:02.820Z,101692.81
2023-02-02T09:49:38.861Z,101704.84
2023-02-02T09:52:14.348Z,101710.88
2023-02-02T09:54:44.779Z,101718.56
2023-02-02T09:57:18.154Z,101714.31
2023-02-02T09:59:48.773Z,101717.75
2023-02-02T10:02:19.794Z,101723.88
2023-02-02T10:04:51.296Z,101641.97
2023-02-02T10:07:23.987Z,101734.91
2023-02-02T10:09:58.972Z,101740.09
2023-02-02T10:12:36.064Z,101699.59
2023-02-02T10:15:13.454Z,101757.34
2023-02-02T10:17:46.308Z,101758.31
2023-02-02T10:20:22.360Z,101765.13
2023-02-02T10:22:52.457Z,101767.81
2023-02-02T10:25:23.746Z,101769.53
2023-02-02T10:28:04.189Z,101745.41
2023-02-02T10:30:41.199Z,101771.22
2023-02-02T10:33:21.490Z,101781.63
2023-02-02T10:35:58.124Z,101796.31
2023-02-02T10:38:37.703Z,101788.56
2023-02-02T10:41:14.700Z,101702.22
2023-02-02T10:44:04.931Z,101804.75
2023-02-02T10:46:37.723Z,101815.16
2023-02-02T10:49:19.144Z,101815.16
2023-02-02T10:51:55.170Z,101806.38
2023-02-02T10:54:54.835Z,101807.41
2023-02-02T10:57:33.696Z,101808.06
2023-02-02T11:00:09.566Z,101820.19
2023-02-02T11:02:37.429Z,101826.44
2023-02-02T11:05:22.882Z,101820.38
2023-02-02T11:07:51.577Z,101824.69
2023-02-02T11:10:20.656Z,101833.28
2023-02-02T11:12:53.105Z,101781.56
2023-02-02T11:15:26.909Z,101782.31
2023-02-02T11:17:54.939Z,101830.69
2023-02-02T11:20:31.906Z,101821.28
2023-02-02T11:23:04.319Z,101822.06
2023-02-02T11:25:35.834Z,101828.97
2023-02-02T11:28:18.786Z,101824.50
2023-02-02T11:30:49.364Z,101739.25
2023-02-02T11:33:29.022Z,101819.50
2023-02-02T11:35:58.980Z,101829.88
2023-02-02T11:38:28.074Z,101822.06
2023-02-02T11:41:02.301Z,101826.31
2023-02-02T11:43:32.269Z,101832.44
2023-02-02T11:46:03.599Z,101834.19
2023-02-02T11:48:35.790Z,101836.78
2023-02-02T11:51:05.307Z,101837.41
2023-02-02T11:53:35.475Z,101840.28
2023-02-02T11:56:08.735Z,101836.75
2023-02-02T11:58:46.114Z,101831.44
2023-02-02T12:01:26.047Z,101840.84
2023-02-02T12:03:54.727Z,101840.13
2023-02-02T12:06:24.707Z,101850.63
2023-02-02T12:08:56.735Z,101845.44
2023-02-02T12:11:44.106Z,101843.53
2023-02-02T12:14:24.698Z,101829.84
2023-02-02T12:17:08.048Z,101847.66
2023-02-02T12:19:53.056Z,101856.41
2023-02-02T12:22:37.442Z,101850.34
2023-02-02T12:25:28.743Z,101853.81
2023-02-02T12:28:06.244Z,101859.06
2023-02-02T12:30:41.618Z,101865.97
2023-02-02T12:33:24.325Z,101859.00
2023-02-02T12:36:09.774Z,101858.22
2023-02-02T12:38:55.529Z,101859.13
2023-02-02T12:41:38.006Z,101861.72
2023-02-02T12:44:17.712Z,101859.22
2023-02-02T12:46:55.130Z,101847.03
2023-02-02T12:49:42.185Z,101863.41
2023-02-02T12:52:22.496Z,101864.28
2023-02-02T12:55:05.167Z,101857.34
2023-02-02T12:57:41.912Z,101864.28
2023-02-02T13:00:38.450Z,101828.06
2023-02-02T13:03:29.478Z,101850.41
2023-02-02T13:06:13.863Z,101862.31
2023-02-02T13:08:49.054Z,101833.00
2023-02-02T13:11:30.798Z,101875.38
2023-02-02T13:14:01.126Z,101883.19
2023-02-02T13:16:32.227Z,101875.50
2023-02-02T13:19:03.730Z,101878.09
2023-02-02T13:21:33.494Z,101876.34
2023-02-02T13:24:06.355Z,101871.16
2023-02-02T13:26:39.507Z,101860.09
2023-02-02T13:29:12.860Z,101873.91
2023-02-02T13:31:49.456Z,101879.91
2023-02-02T13:34:22.100Z,101884.16
2023-02-02T13:36:55.311Z,101885.13
2023-02-02T13:39:29.939Z,101843.75
2023-02-02T13:41:57.757Z,101875.63
2023-02-02T13:44:30.993Z,101874.75
2023-02-02T13:47:06.103Z,101821.22
2023-02-02T13:49:41.042Z,101884.22
2023-02-02T13:52:22.975Z,101874.78
2023-02-02T13:55:25.553Z,101877.34
2023-02-02T13:58:35.997Z,101891.03
2023-02-02T14:01:12.743Z,101881.50
2023-02-02T14:03:43.629Z,101875.41
2023-02-02T14:06:15.367Z,101886.84
2023-02-02T14:08:49.142Z,101875.63
2023-02-02T14:11:30.328Z,101873.06
2023-02-02T14:14:18.578Z,101871.34
2023-02-02T14:16:53.344Z,101873.91
2023-02-02T14:19:50.325Z,101879.81
2023-02-02T14:22:20.927Z,101873.81
2023-02-02T14:24:50.585Z,101890.28
2023-02-02T14:27:57.909Z,101879.03
2023-02-02T14:30:29.828Z,101881.66
2023-02-02T14:33:26.121Z,101873.03
2023-02-02T14:36:02.137Z,101884.28
2023-02-02T14:39:04.354Z,101885.13
2023-02-02T14:42:30.501Z,101900.66
2023-02-02T14:45:17.162Z,101897.22
2023-02-02T14:47:51.247Z,101893.69
2023-02-02T14:50:24.765Z,101908.38
2023-02-02T14:53:02.864Z,101909.25
2023-02-02T14:55:31.764Z,101916.19
2023-02-02T14:58:02.074Z,101921.34
2023-02-02T15:00:33.019Z,101925.59
2023-02-02T15:03:38.211Z,101925.63
2023-02-02T15:06:14.507Z,101942.84
2023-02-02T15:08:44.724Z,101954.06
2023-02-02T15:11:32.101Z,101957.50
2023-02-02T15:14:19.209Z,101950.63
2023-02-02T15:16:47.496Z,101949.78
2023-02-02T15:19:24.745Z,101949.78
2023-02-02T15:21:56.340Z,101952.38
2023-02-02T15:24:28.798Z,101954.88
2023-02-02T15:26:59.999Z,101960.94
2023-02-02T15:29:43.065Z,101961.78
2023-02-02T15:32:16.424Z,101962.63
2023-02-02T15:34:47.894Z,101953.84
2023-02-02T15:37:21.415Z,101865.66
2023-02-02T15:39:53.312Z,101985.72
2023-02-02T15:42:41.833Z,101987.38
2023-02-02T15:45:33.218Z,101995.22
2023-02-02T15:48:04.075Z,101997.84
2023-02-02T15:50:31.893Z,101995.25
2023-02-02T15:53:00.035Z,102002.19
2023-02-02T15:55:33.556Z,102003.88
2023-02-02T15:58:01.657Z,102015.03
2023-02-02T16:00:31.962Z,102021.84
2023-02-02T16:03:05.592Z,102017.47
2023-02-02T16:05:47.591Z,102017.38
2023-02-02T16:08:19.743Z,102033.16
2023-02-02T16:10:50.097Z,102040.22
2023-02-02T16:13:27.304Z,102046.84
2023-02-02T16:16:00.421Z,102053.94
2023-02-02T16:18:28.557Z,102028.75
2023-02-02T16:20:59.078Z,102065.19
2023-02-02T16:23:31.255Z,102055.22
2023-02-02T16:26:03.709Z,102067.72
2023-02-02T16:28:33.204Z,102080.59
2023-02-02T16:31:02.554Z,102079.03
2023-02-02T16:33:35.578Z,102080.13
2023-02-02T16:36:06.095Z,102081.22
2023-02-02T16:38:39.576Z,102077.75
2023-02-02T16:41:10.640Z,102084.22
2023-02-02T16:43:39.905Z,102068.63
2023-02-02T16:46:10.835Z,102069.28
2023-02-02T16:48:41.952Z,102078.94
2023-02-02T16:51:26.994Z,102073.81
2023-02-02T16:54:01.769Z,102078.31
2023-02-02T16:56:35.747Z,102081.63
2023-02-02T16:59:06.557Z,102081.63
2023-02-02T17:01:38.789Z,102095.81
2023-02-02T17:04:17.008Z,102090.63
2023-02-02T17:06:52.403Z,102090.41
2023-02-02T17:09:37.321Z,102097.31
2023-02-02T17:12:33.191Z,102094.91
2023-02-02T17:15:05.698Z,102101.72
2023-02-02T17:17:33.469Z,102103.38
2023-02-02T17:20:01.273Z,102102.78
2023-02-02T17:22:29.097Z,102104.56
2023-02-02T17:24:56.836Z,102101.44
2023-02-02T17:27:28.515Z,102104.34
2023-02-02T17:29:57.296Z,102093.44
2023-02-02T17:32:25.527Z,102104.41
2023-02-02T17:34:53.303Z,102103.38
2023-02-02T17:37:21.060Z,102094.63
2023-02-02T17:39:50.710Z,102094.75
2023-02-02T17:42:25.701Z,102103.19
2023-02-02T17:44:55.009Z,102111.06
2023-02-02T17:47:22.808Z,102100.25
2023-02-02T17:49:50.622Z,102096.09
2023-02-02T17:52:18.492Z,102095.00
2023-02-02T17:54:46.271Z,102100.50
2023-02-02T17:57:15.499Z,102094.31
2023-02-02T17:59:43.250Z,102094.72
2023-02-02T18:02:16.153Z,102095.94
2023-02-02T18:04:45.603Z,102099.66
2023-02-02T18:07:13.610Z,102102.94
2023-02-02T18:09:41.582Z,102095.06
2023-02-02T18:12:09.585Z,102109.13
2023-02-02T18:14:38.138Z,102103.78
2023-02-02T18:17:08.234Z,102099.44
2023-02-02T18:19:39.238Z,102109.53
2023-02-02T18:22:07.475Z,102115.53
2023-02-02T18:24:35.172Z,102102.84
2023-02-02T18:27:02.875Z,102102.13
2023-02-02T18:29:30.663Z,102091.88
2023-02-02T18:31:59.324Z,102088.81
2023-02-02T18:34:30.357Z,102079.53
2023-02-02T18:36:59.636Z,102095.28
2023-02-02T18:39:27.497Z,102086.50
2023-02-02T18:41:55.223Z,102084.84
2023-02-02T18:44:23.951Z,102078.03
2023-02-02T18:46:52.252Z,102090.38
2023-02-02T18:49:20.534Z,102085.31
2023-02-02T18:51:48.925Z,102074.28
2023-02-02T18:54:17.992Z,102074.06
2023-02-02T18:56:45.688Z,102078.66
2023-02-02T18:59:13.432Z,102072.91
2023-02-02T19:01:41.226Z,102073.31
2023-02-02T19:04:09.643Z,102061.91
2023-02-02T19:06:55.335Z,102039.50
2023-02-02T19:09:24.781Z,102055.97
2023-02-02T19:11:54.787Z,102027.47
2023-02-02T19:14:26.525Z,102046.34
2023-02-02T19:16:57.014Z,102043.34
2023-02-02T19:19:26.384Z,102034.81
2023-02-02T19:21:56.465Z,102045.16
2023-02-02T19:24:26.590Z,102050.44
2023-02-02T19:26:54.987Z,102040.00
2023-02-02T19:29:24.927Z,102037.94
2023-02-02T19:31:54.427Z,102039.75
2023-02-02T19:34:23.891Z,102046.06
2023-02-02T19:36:52.281Z,102025.94
2023-02-02T19:39:22.271Z,102028.53
2023-02-02T19:41:52.713Z,102016.19
2023-02-02T19:44:22.356Z,102015.28
2023-02-02T19:46:51.818Z,102014.16
2023-02-02T19:49:25.902Z,102014.81
2023-02-02T19:51:55.717Z,102010.00
2023-02-02T19:54:29.141Z,102010.56
2023-02-02T19:57:00.010Z,102017.00
2023-02-02T19:59:33.650Z,102007.44
2023-02-02T20:02:17.832Z,102007.03
2023-02-02T20:04:45.537Z,102016.44
2023-02-02T20:07:15.690Z,101963.63
2023-02-02T20:09:43.885Z,102017.38
2023-02-02T20:12:25.168Z,102006.47
2023-02-02T20:14:53.122Z,101899.16
2023-02-02T20:17:26.590Z,102008.13
2023-02-02T20:19:54.274Z,101993.81
2023-02-02T20:22:25.410Z,101995.84
2023-02-02T20:24:54.685Z,101996.75
2023-02-02T20:27:26.520Z,101984.81
2023-02-02T20:29:56.408Z,101979.63
2023-02-02T20:32:26.577Z,101976.66
2023-02-02T20:34:56.417Z,101969.34
2023-02-02T20:37:29.066Z,101965.28
2023-02-02T20:39:58.742Z,101963.22
2023-02-02T20:42:28.413Z,101960.72
2023-02-02T20:44:57.820Z,101955.25
2023-02-02T20:47:25.655Z,101949.09
2023-02-02T20:49:53.355Z,101954.75
2023-02-02T20:52:23.761Z,101959.50
2023-02-02T20:54:52.560Z,101944.09
2023-02-02T20:57:20.555Z,101939.84
2023-02-02T20:59:57.235Z,101943.16
2023-02-02T21:02:26.671Z,101934.03
2023-02-02T21:04:54.787Z,101938.00
2023-02-02T21:07:23.601Z,101917.25
2023-02-02T21:09:52.320Z,101924.09
2023-02-02T21:12:22.245Z,101934.16
2023-02-02T21:14:51.393Z,101918.09
2023-02-02T21:17:19.175Z,101913.97
2023-02-02T21:19:46.881Z,101913.63
2023-02-02T21:22:14.699Z,101907.41
2023-02-02T21:24:42.752Z,101904.59
2023-02-02T21:27:10.766Z,101900.19
2023-02-02T21:29:38.620Z,101891.03
2023-02-02T21:32:07.857Z,101889.44
2023-02-02T21:34:36.995Z,101897.13
2023-02-02T21:37:04.736Z,101902.38
2023-02-02T21:39:35.166Z,101903.38
2023-02-02T21:42:13.780Z,101892.69
2023-02-02T21:44:44.656Z,101907.78
2023-02-02T21:47:28.457Z,101902.38
2023-02-02T21:49:56.812Z,101878.75
2023-02-02T21:52:26.602Z,101882.44
2023-02-02T21:54:54.322Z,101860.31
2023-02-02T21:57:25.577Z,101866.88
2023-02-02T21:59:58.313Z,101859.56
2023-02-02T22:02:39.311Z,101850.53
2023-02-02T22:05:17.615Z,101843.47
2023-02-02T22:07:48.048Z,101833.09
2023-02-02T22:10:37.249Z,101832.56
2023-02-02T22:13:16.912Z,101821.06
2023-02-02T22:15:47.403Z,101813.16
2023-02-02T22:18:18.758Z,101793.06
2023-02-02T22:20:49.651Z,101789.91
2023-02-02T22:23:19.158Z,101788.84
2023-02-02T22:25:48.791Z,101782.59
2023-02-02T22:28:22.369Z,101779.78
2023-02-02T22:30:51.809Z,101774.03
2023-02-02T22:33:21.610Z,101765.53
2023-02-02T22:35:49.778Z,101758.50
2023-02-02T22:38:19.060Z,101745.00
2023-02-02T22:40:47.179Z,101743.09
2023-02-02T22:43:16.240Z,101754.31
2023-02-02T22:45:44.175Z,101739.94
2023-02-02T22:48:12.922Z,101736.78
2023-02-02T22:50:42.132Z,101738.41
2023-02-02T22:53:09.888Z,101735.75
2023-02-02T22:55:37.632Z,101725.19
2023-02-02T22:58:05.357Z,101724.63
2023-02-02T23:00:33.642Z,101725.50
2023-02-02T23:03:01.450Z,101710.59
2023-02-02T23:05:29.782Z,101699.59
2023-02-02T23:07:58.872Z,101707.41
2023-02-02T23:10:29.570Z,101707.50
2023-02-02T23:12:58.998Z,101680.25
2023-02-02T23:15:26.977Z,101694.03
2023-02-02T23:17:55.326Z,101680.94
2023-02-02T23:20:23.561Z,101671.19
2023-02-02T23:22:51.508Z,101666.97
2023-02-02T23:25:22.078Z,101651.19
2023-02-02T23:27:50.265Z,101658.88
2023-02-02T23:30:21.126Z,101639.34
2023-02-02T23:32:49.413Z,101586.28
2023-02-02T23:35:17.461Z,101626.44
2023-02-02T23:37:45.151Z,101643.75
2023-02-02T23:40:13.952Z,101638.69
2023-02-02T23:42:43.077Z,101641.22
2023-02-02T23:45:11.326Z,101587.09
2023-02-02T23:47:39.637Z,101619.88
2023-02-02T23:50:09.508Z,101626.94
2023-02-02T23:52:38.315Z,101613.22
2023-02-02T23:55:07.016Z,101614.94
2023-02-02T23:57:36.544Z,101626.22
